Time;durP1;ratioP1;P1;durP2;ratioP2;P2;SDS_P1;SDS_P2;PMS_P1;PMS_P2;Temp;Humidity;BMP_temperature;BMP_pressure;BME280_temperature;BME280_humidity;BME280_pressure;Samples;Min_cycle;Max_cycle;Signal;HPM_P1;HPM_P2
2021/01/01 00:00:31;;;;;;;;;;;;;;;8.37;49.62;100189.69;6054208;23;96773;-84
2021/01/01 00:03:00;;;;;;;;;;;;;;;8.64;49.07;100191.34;6053932;23;96479;-84
2021/01/01 00:05:27;;;;;;;;;;;;;;;8.68;49.05;100187.66;6056116;23;98774;-85
2021/01/01 00:07:56;;;;;;;;;;;;;;;8.50;49.51;100195.38;6055868;23;98484;-84
2021/01/01 00:10:37;;;;;;;;;;;;;;;8.28;49.91;100190.81;6054338;23;96602;-85
2021/01/01 00:13:09;;;;;;;;;;;;;;;8.55;49.43;100188.16;6054758;23;96645;-84
2021/01/01 00:15:35;;;;;;;;;;;;;;;8.44;49.86;100190.31;6054473;23;97766;-86
2021/01/01 00:18:00;;;;;;;;;;;;;;;8.46;49.87;100185.88;6050129;23;100162;-83
2021/01/01 00:20:28;;;;;;;;;;;;;;;8.47;49.58;100190.22;6048689;23;96563;-83
2021/01/01 00:22:54;;;;;;;;;;;;;;;8.46;49.64;100188.50;6047262;23;96796;-84
2021/01/01 00:25:21;;;;;;;;;;;;;;;8.53;49.44;100185.59;6046642;23;96849;-84
2021/01/01 00:27:47;;;;;;;;;;;;;;;8.37;49.29;100194.94;6055525;23;99453;-84
2021/01/01 00:30:18;;;;;;;;;;;;;;;8.31;49.35;100190.75;6056061;23;96407;-85
2021/01/01 00:32:44;;;;;;;;;;;;;;;8.59;48.59;100195.06;6055433;23;96636;-83
2021/01/01 00:35:10;;;;;;;;;;;;;;;8.48;48.65;100191.91;6045067;23;98948;-83
2021/01/01 00:37:36;;;;;;;;;;;;;;;8.52;48.55;100193.56;6050979;23;98008;-84
2021/01/01 00:40:03;;;;;;;;;;;;;;;8.58;48.32;100194.19;6048183;23;96601;-83
2021/01/01 00:42:28;;;;;;;;;;;;;;;8.78;47.65;100201.38;6045801;23;96670;-84
2021/01/01 00:44:55;;;;;;;;;;;;;;;8.62;48.10;100200.19;6044597;23;100138;-83
2021/01/01 00:47:21;;;;;;;;;;;;;;;8.67;47.70;100200.88;6044627;23;100982;-82
2021/01/01 00:49:47;;;;;;;;;;;;;;;8.80;47.62;100195.09;6047094;23;96670;-83
2021/01/01 00:52:13;;;;;;;;;;;;;;;8.64;48.17;100201.00;6049730;23;96802;-82
2021/01/01 00:54:39;;;;;;;;;;;;;;;8.77;47.64;100202.28;6051648;23;98959;-82
2021/01/01 00:57:05;;;;;;;;;;;;;;;8.61;47.80;100199.34;6044097;23;98393;-83
2021/01/01 00:59:31;;;;;;;;;;;;;;;8.65;48.00;100194.84;6043139;23;96677;-83
2021/01/01 01:01:59;;;;;;;;;;;;;;;8.38;48.44;100194.91;6050812;23;96632;-85
2021/01/01 01:04:25;;;;;;;;;;;;;;;8.46;48.63;100194.63;6046792;23;99298;-84
2021/01/01 01:06:51;;;;;;;;;;;;;;;8.54;47.83;100189.06;6035563;23;98743;-82
2021/01/01 01:09:17;;;;;;;;;;;;;;;8.58;47.48;100190.69;6037562;23;96655;-82
2021/01/01 01:11:43;;;;;;;;;;;;;;;8.45;47.67;100194.69;6036300;23;96895;-83
2021/01/01 01:14:09;;;;;;;;;;;;;;;8.39;47.64;100190.50;6035888;23;97856;-83
2021/01/01 01:16:34;;;;;;;;;;;;;;;8.20;48.14;100182.34;6035606;23;98859;-82
2021/01/01 01:19:01;;;;;;;;;;;;;;;8.38;47.71;100180.88;6035861;23;96679;-82
2021/01/01 01:21:28;;;;;;;;;;;;;;;8.26;47.99;100184.78;6036059;23;96791;-83
2021/01/01 01:23:55;;;;;;;;;;;;;;;8.28;47.83;100188.19;6035926;23;99602;-84
2021/01/01 01:26:20;;;;;;;;;;;;;;;8.56;47.25;100181.97;6037030;23;98116;-84
2021/01/01 01:28:47;;;;;;;;;;;;;;;8.48;47.09;100192.78;6036496;23;96779;-83
2021/01/01 01:31:13;;;;;;;;;;;;;;;8.58;46.73;100193.34;6037347;23;96830;-82
2021/01/01 01:33:38;;;;;;;;;;;;;;;8.46;47.03;100188.50;6036910;23;100563;-83
2021/01/01 01:36:05;;;;;;;;;;;;;;;8.46;47.31;100186.75;6038033;23;99145;-82
2021/01/01 01:38:32;;;;;;;;;;;;;;;8.46;47.37;100191.13;6041971;23;97058;-85
2021/01/01 01:40:58;;;;;;;;;;;;;;;8.43;47.16;100189.47;6043108;23;96821;-84
2021/01/01 01:43:25;;;;;;;;;;;;;;;8.35;47.41;100196.75;6043993;23;98995;-84
2021/01/01 01:45:50;;;;;;;;;;;;;;;8.60;46.68;100184.44;6039150;23;99010;-83
2021/01/01 01:48:19;;;;;;;;;;;;;;;8.54;46.77;100183.81;6037603;23;96721;-83
2021/01/01 01:50:45;;;;;;;;;;;;;;;8.30;47.43;100186.41;6038271;23;96792;-84
2021/01/01 01:53:11;;;;;;;;;;;;;;;8.49;46.86;100193.66;6038401;23;99207;-82
2021/01/01 01:55:38;;;;;;;;;;;;;;;8.50;47.44;100192.75;6034443;23;100882;-81
2021/01/01 01:58:04;;;;;;;;;;;;;;;8.51;47.03;100199.72;6039334;23;96697;-83
2021/01/01 02:00:49;;;;;;;;;;;;;;;8.42;47.24;100202.66;6044299;23;97146;-83
2021/01/01 02:03:16;;;;;;;;;;;;;;;8.36;47.10;100199.34;6049018;23;98969;-82
2021/01/01 02:05:42;;;;;;;;;;;;;;;8.38;46.89;100202.78;6051457;23;101883;-82
2021/01/01 02:08:07;;;;;;;;;;;;;;;8.34;47.21;100197.69;6053541;23;96466;-83
2021/01/01 02:10:33;;;;;;;;;;;;;;;8.35;47.41;100196.75;6055975;23;96529;-84
2021/01/01 02:13:00;;;;;;;;;;;;;;;8.35;47.25;100200.25;6056282;23;97852;-83
2021/01/01 02:15:26;;;;;;;;;;;;;;;8.57;46.90;100204.78;6057334;23;97872;-82
2021/01/01 02:17:52;;;;;;;;;;;;;;;8.57;46.53;100204.78;6056822;23;95954;-82
2021/01/01 02:20:18;;;;;;;;;;;;;;;8.22;47.39;100205.97;6054765;23;96572;-82
2021/01/01 02:22:45;;;;;;;;;;;;;;;8.33;46.99;100204.75;6053108;23;98019;-83
2021/01/01 02:25:11;;;;;;;;;;;;;;;8.12;47.78;100205.44;6044842;23;96959;-83
2021/01/01 02:27:38;;;;;;;;;;;;;;;8.33;47.15;100212.63;6053882;23;95902;-82
2021/01/01 02:30:04;;;;;;;;;;;;;;;8.52;46.93;100209.34;6057565;23;96330;-83
2021/01/01 02:32:30;;;;;;;;;;;;;;;8.40;47.09;100208.03;6046448;23;100219;-82
2021/01/01 02:34:56;;;;;;;;;;;;;;;8.32;47.25;100202.16;6047069;23;97729;-82
2021/01/01 02:37:21;;;;;;;;;;;;;;;8.35;46.97;100208.16;6040404;23;96658;-82
2021/01/01 02:39:48;;;;;;;;;;;;;;;8.40;46.94;100208.84;6035557;23;96733;-83
2021/01/01 02:42:14;;;;;;;;;;;;;;;8.46;47.36;100206.94;6034785;23;99379;-83
2021/01/01 02:44:40;;;;;;;;;;;;;;;8.60;46.52;100204.69;6038470;23;98870;-83
2021/01/01 02:47:06;;;;;;;;;;;;;;;8.40;47.20;100208.03;6036562;23;96651;-82
2021/01/01 02:49:32;;;;;;;;;;;;;;;8.36;47.35;100204.63;6036621;23;97083;-82
2021/01/01 02:51:58;;;;;;;;;;;;;;;8.34;47.39;100206.44;6039126;23;98849;-84
2021/01/01 02:54:23;;;;;;;;;;;;;;;8.44;47.19;100206.13;6046493;23;99317;-83
2021/01/01 02:56:50;;;;;;;;;;;;;;;8.20;47.66;100208.69;6044831;23;96516;-83
2021/01/01 02:59:16;;;;;;;;;;;;;;;8.34;47.55;100206.44;6037276;23;96786;-83
2021/01/01 03:01:42;;;;;;;;;;;;;;;8.51;47.29;100205.84;6036656;23;99229;-83
2021/01/01 03:04:09;;;;;;;;;;;;;;;8.44;47.32;100208.75;6038275;23;98834;-82
2021/01/01 03:06:34;;;;;;;;;;;;;;;8.13;48.02;100207.16;6049805;23;96639;-83
2021/01/01 03:09:00;;;;;;;;;;;;;;;8.35;47.75;100200.25;6053560;23;96674;-82
2021/01/01 03:11:26;;;;;;;;;;;;;;;8.35;47.50;100200.25;6051964;23;97778;-82
2021/01/01 03:13:53;;;;;;;;;;;;;;;8.24;47.92;100201.53;6051975;23;97593;-82
2021/01/01 03:16:18;;;;;;;;;;;;;;;8.26;47.93;100197.06;6055610;23;96925;-81
2021/01/01 03:18:44;;;;;;;;;;;;;;;8.24;47.78;100198.88;6054573;23;96486;-82
2021/01/01 03:21:10;;;;;;;;;;;;;;;8.31;47.87;100196.03;6052005;23;98265;-83
2021/01/01 03:23:37;;;;;;;;;;;;;;;8.47;47.70;100198.13;6052932;23;101441;-82
2021/01/01 03:26:03;;;;;;;;;;;;;;;8.31;47.73;100200.44;6055313;23;96682;-81
2021/01/01 03:28:29;;;;;;;;;;;;;;;8.33;47.72;100199.47;6043526;23;97148;-79
2021/01/01 03:30:55;;;;;;;;;;;;;;;8.18;48.20;100207.84;6047747;23;97586;-79
2021/01/01 03:33:21;;;;;;;;;;;;;;;8.32;47.93;100194.25;6054880;23;96456;-80
2021/01/01 03:35:48;;;;;;;;;;;;;;;8.34;48.05;100200.31;6057146;23;96703;-80
2021/01/01 03:38:14;;;;;;;;;;;;;;;8.24;47.83;100204.16;6056845;23;96676;-81
2021/01/01 03:40:39;;;;;;;;;;;;;;;8.38;47.91;100201.94;6047806;23;100307;-81
2021/01/01 03:43:05;;;;;;;;;;;;;;;8.31;48.33;100192.53;6039197;23;99255;-81
2021/01/01 03:45:31;;;;;;;;;;;;;;;8.29;48.26;100192.53;6036433;23;96809;-81
2021/01/01 03:47:58;;;;;;;;;;;;;;;8.33;47.99;100188.09;6035375;23;96827;-81
2021/01/01 03:50:24;;;;;;;;;;;;;;;8.10;48.64;100185.34;6035135;23;98908;-81
2021/01/01 03:52:49;;;;;;;;;;;;;;;8.30;48.13;100182.88;6034098;23;98894;-81
2021/01/01 03:55:15;;;;;;;;;;;;;;;8.31;47.89;100182.88;6034406;23;96768;-81
2021/01/01 03:57:41;;;;;;;;;;;;;;;8.17;48.59;100186.84;6033908;23;96784;-80
2021/01/01 04:00:07;;;;;;;;;;;;;;;8.38;47.88;100178.25;6033234;23;99181;-81
2021/01/01 04:02:33;;;;;;;;;;;;;;;8.32;48.10;100175.84;6032776;23;99354;-80
2021/01/01 04:05:01;;;;;;;;;;;;;;;8.33;48.05;100181.03;6033655;23;96854;-80
2021/01/01 04:07:27;;;;;;;;;;;;;;;8.32;48.04;100178.47;6033310;23;96791;-80
2021/01/01 04:09:53;;;;;;;;;;;;;;;8.00;48.79;100182.19;6034615;23;99267;-80
2021/01/01 04:12:19;;;;;;;;;;;;;;;8.32;48.16;100189.84;6033037;23;98859;-80
2021/01/01 04:14:45;;;;;;;;;;;;;;;8.34;48.24;100190.63;6035907;23;96771;-81
2021/01/01 04:17:11;;;;;;;;;;;;;;;8.43;48.00;100176.31;6034932;23;96811;-81
2021/01/01 04:19:36;;;;;;;;;;;;;;;8.37;48.04;100190.53;6034050;23;101831;-81
2021/01/01 04:22:03;;;;;;;;;;;;;;;8.33;48.21;100182.81;6033415;23;98978;-81
2021/01/01 04:24:29;;;;;;;;;;;;;;;8.24;48.18;100186.59;6035503;23;96674;-81
2021/01/01 04:26:55;;;;;;;;;;;;;;;8.35;48.11;100194.13;6033005;23;96960;-80
2021/01/01 04:29:20;;;;;;;;;;;;;;;8.08;48.61;100188.00;6032602;23;98926;-80
2021/01/01 04:31:46;;;;;;;;;;;;;;;8.45;48.67;100186.78;6032888;23;98798;-80
2021/01/01 04:34:12;;;;;;;;;;;;;;;8.16;48.67;100186.00;6033696;23;96643;-80
2021/01/01 04:36:38;;;;;;;;;;;;;;;8.32;48.57;100189.84;6033229;23;96801;-81
2021/01/01 04:39:05;;;;;;;;;;;;;;;8.16;48.76;100191.25;6034599;23;96699;-81
2021/01/01 04:41:32;;;;;;;;;;;;;;;8.24;48.36;100189.22;6033891;23;97788;-82
2021/01/01 04:43:58;;;;;;;;;;;;;;;7.98;48.98;100199.78;6035277;23;96745;-81
2021/01/01 04:46:24;;;;;;;;;;;;;;;8.09;48.92;100202.91;6034531;23;96771;-81
2021/01/01 04:48:50;;;;;;;;;;;;;;;8.17;48.79;100197.38;6035898;23;99071;-81
2021/01/01 04:51:16;;;;;;;;;;;;;;;8.28;48.71;100193.44;6035189;23;98057;-81
2021/01/01 04:53:41;;;;;;;;;;;;;;;8.48;48.37;100195.41;6036277;23;96726;-79
2021/01/01 04:56:08;;;;;;;;;;;;;;;8.24;48.39;100194.47;6037184;23;96934;-79
2021/01/01 04:58:35;;;;;;;;;;;;;;;8.02;49.03;100194.34;6040408;23;98897;-80
2021/01/01 05:01:02;;;;;;;;;;;;;;;8.37;48.24;100187.06;6034222;23;98917;-80
2021/01/01 05:03:28;;;;;;;;;;;;;;;8.37;48.15;100194.94;6034892;23;96662;-80
2021/01/01 05:05:54;;;;;;;;;;;;;;;8.24;48.57;100204.16;6035178;23;96872;-80
2021/01/01 05:08:20;;;;;;;;;;;;;;;8.30;48.58;100199.56;6034280;23;96817;-80
2021/01/01 05:10:46;;;;;;;;;;;;;;;8.28;48.61;100198.72;6034306;23;102324;-80
2021/01/01 05:13:14;;;;;;;;;;;;;;;8.20;48.90;100207.81;6036292;23;97131;-80
2021/01/01 05:15:40;;;;;;;;;;;;;;;8.25;48.84;100206.75;6033484;23;97201;-79
2021/01/01 05:18:16;;;;;;;;;;;;;;;8.28;48.62;100206.63;6032726;23;98962;-79
2021/01/01 05:20:42;;;;;;;;;;;;;;;8.34;48.34;100206.44;6031573;23;98949;-80
2021/01/01 05:23:17;;;;;;;;;;;;;;;8.45;48.27;100211.34;6033148;23;96967;-80
2021/01/01 05:25:43;;;;;;;;;;;;;;;8.40;48.43;100211.47;6033442;23;96654;-79
2021/01/01 05:28:11;;;;;;;;;;;;;;;8.08;49.23;100210.84;6034410;23;100855;-80
2021/01/01 05:30:38;;;;;;;;;;;;;;;8.19;48.86;100203.47;6035147;23;98916;-79
2021/01/01 05:33:07;;;;;;;;;;;;;;;8.18;48.78;100210.50;6037370;23;96732;-79
2021/01/01 05:35:33;;;;;;;;;;;;;;;8.21;49.02;100210.38;6033910;23;96801;-79
2021/01/01 05:38:14;;;;;;;;;;;;;;;8.13;49.06;100206.31;6033622;23;97768;-79
2021/01/01 05:40:40;;;;;;;;;;;;;;;8.22;49.12;100208.59;6032634;23;98924;-80
2021/01/01 05:43:16;;;;;;;;;;;;;;;8.10;49.03;100212.50;6033718;23;96758;-78
2021/01/01 05:45:43;;;;;;;;;;;;;;;8.07;49.16;100212.63;6033143;23;96692;-79
2021/01/01 05:48:09;;;;;;;;;;;;;;;7.91;49.58;100222.78;6031807;23;98653;-80
2021/01/01 05:50:35;;;;;;;;;;;;;;;7.93;49.61;100220.13;6032453;23;98900;-80
2021/01/01 05:53:11;;;;;;;;;;;;;;;7.92;49.64;100224.53;6032608;23;96645;-80
2021/01/01 05:55:37;;;;;;;;;;;;;;;7.94;49.49;100227.94;6033411;23;96893;-80
2021/01/01 05:58:03;;;;;;;;;;;;;;;7.89;49.74;100227.25;6033601;23;98899;-80
2021/01/01 06:00:30;;;;;;;;;;;;;;;7.94;49.78;100230.56;6032956;23;99084;-80
2021/01/01 06:02:57;;;;;;;;;;;;;;;7.75;49.85;100229.44;6033139;23;96891;-79
2021/01/01 06:05:25;;;;;;;;;;;;;;;7.94;49.67;100227.09;6033352;23;96714;-80
2021/01/01 06:07:53;;;;;;;;;;;;;;;7.85;49.81;100227.41;6032866;23;98866;-80
2021/01/01 06:10:20;;;;;;;;;;;;;;;7.96;49.51;100233.16;6031867;23;98816;-80
2021/01/01 06:12:51;;;;;;;;;;;;;;;7.76;50.21;100244.31;6032932;23;96673;-79
2021/01/01 06:15:21;;;;;;;;;;;;;;;7.78;50.44;100237.25;6032026;23;97068;-79
2021/01/01 06:17:48;;;;;;;;;;;;;;;7.59;50.58;100244.88;6032164;23;98915;-80
2021/01/01 06:20:17;;;;;;;;;;;;;;;7.80;50.43;100247.72;6032130;23;99144;-79
2021/01/01 06:23:00;;;;;;;;;;;;;;;7.87;50.04;100247.50;6033638;23;96628;-80
2021/01/01 06:25:26;;;;;;;;;;;;;;;7.87;50.00;100251.88;6032893;23;97159;-79
2021/01/01 06:27:52;;;;;;;;;;;;;;;7.73;50.51;100254.97;6033747;23;98909;-79
2021/01/01 06:30:20;;;;;;;;;;;;;;;7.62;50.83;100257.03;6032939;23;97778;-80
2021/01/01 06:32:46;;;;;;;;;;;;;;;7.81;50.52;100254.72;6034478;23;97022;-81
2021/01/01 06:35:12;;;;;;;;;;;;;;;7.74;50.78;100255.81;6035522;23;97466;-79
2021/01/01 06:37:40;;;;;;;;;;;;;;;7.93;50.41;100262.22;6037646;23;98169;-80
2021/01/01 06:40:07;;;;;;;;;;;;;;;7.87;50.58;100265.91;6040076;23;102667;-80
2021/01/01 06:42:52;;;;;;;;;;;;;;;7.88;50.64;100258.84;6035722;23;96592;-80
2021/01/01 06:45:39;;;;;;;;;;;;;;;7.76;51.16;100265.38;6034346;23;96851;-81
2021/01/01 06:48:06;;;;;;;;;;;;;;;7.88;51.03;100269.38;6036009;23;97856;-81
2021/01/01 06:50:32;;;;;;;;;;;;;;;7.86;51.10;100272.06;6037511;23;97653;-79
2021/01/01 06:53:02;;;;;;;;;;;;;;;8.02;50.97;100267.16;6039574;23;96771;-80
2021/01/01 06:55:30;;;;;;;;;;;;;;;7.99;51.01;100265.50;6039428;23;97022;-80
2021/01/01 06:57:56;;;;;;;;;;;;;;;8.02;50.81;100278.53;6039866;23;97949;-80
2021/01/01 07:00:37;;;;;;;;;;;;;;;7.45;52.92;100275.97;6032045;23;98883;-81
2021/01/01 07:03:23;;;;;;;;;;;;;;;7.47;52.86;100278.56;6032190;23;96652;-80
2021/01/01 07:05:49;;;;;;;;;;;;;;;7.53;53.39;100283.63;6033159;23;96868;-80
2021/01/01 07:08:29;;;;;;;;;;;;;;;7.67;52.81;100283.22;6033421;23;98882;-80
2021/01/01 07:10:56;;;;;;;;;;;;;;;7.70;53.02;100283.97;6031503;23;99323;-80
2021/01/01 07:13:22;;;;;;;;;;;;;;;7.70;53.19;100285.72;6033317;23;96725;-80
2021/01/01 07:15:47;;;;;;;;;;;;;;;7.59;53.40;100294.84;6036389;23;96868;-80
2021/01/01 07:18:17;;;;;;;;;;;;;;;7.51;53.83;100285.44;6032892;23;98873;-81
2021/01/01 07:20:44;;;;;;;;;;;;;;;7.67;53.54;100297.22;6034317;23;99017;-81
2021/01/01 07:23:09;;;;;;;;;;;;;;;7.81;53.36;100299.44;6032984;23;96633;-82
2021/01/01 07:25:36;;;;;;;;;;;;;;;7.77;53.41;100297.78;6032177;23;96953;-81
2021/01/01 07:28:03;;;;;;;;;;;;;;;7.78;53.56;100299.50;6032076;23;98884;-81
2021/01/01 07:30:33;;;;;;;;;;;;;;;7.92;53.12;100300.81;6032013;23;98046;-80
2021/01/01 07:32:59;;;;;;;;;;;;;;;7.72;53.47;100304.97;6032451;23;96742;-80
2021/01/01 07:35:25;;;;;;;;;;;;;;;7.79;53.83;100311.75;6034054;23;97287;-80
2021/01/01 07:37:52;;;;;;;;;;;;;;;7.73;53.84;100309.31;6037594;23;99033;-79
2021/01/01 07:40:18;;;;;;;;;;;;;;;7.43;54.56;100305.84;6043456;23;98864;-79
2021/01/01 07:42:47;;;;;;;;;;;;;;;7.57;54.51;100301.91;6055807;23;96296;-80
2021/01/01 07:45:14;;;;;;;;;;;;;;;7.86;53.95;100308.03;6042887;23;96689;-80
2021/01/01 07:47:42;;;;;;;;;;;;;;;7.81;53.72;100309.97;6034267;23;99082;-81
2021/01/01 07:50:11;;;;;;;;;;;;;;;7.78;54.01;100315.28;6034417;23;99050;-80
2021/01/01 07:52:37;;;;;;;;;;;;;;;7.91;53.51;100314.00;6036671;23;97257;-80
2021/01/01 07:55:03;;;;;;;;;;;;;;;7.63;54.51;100307.88;6037058;23;97177;-80
2021/01/01 07:57:28;;;;;;;;;;;;;;;7.84;54.01;100315.97;6035965;23;99153;-80
2021/01/01 07:59:55;;;;;;;;;;;;;;;7.93;53.90;100320.09;6036418;23;99191;-82
2021/01/01 08:02:22;;;;;;;;;;;;;;;7.94;53.76;100324.44;6038821;23;96886;-81
2021/01/01 08:04:48;;;;;;;;;;;;;;;8.12;53.49;100315.97;6035710;23;96876;-81
2021/01/01 08:07:21;;;;;;;;;;;;;;;8.22;53.11;100316.50;6035492;23;99099;-80
2021/01/01 08:09:46;;;;;;;;;;;;;;;8.10;53.27;100317.78;6033955;23;98942;-81
2021/01/01 08:12:13;;;;;;;;;;;;;;;8.18;53.52;100322.78;6035896;23;96689;-80
2021/01/01 08:14:38;;;;;;;;;;;;;;;8.07;53.59;100335.44;6035111;23;96916;-81
2021/01/01 08:17:16;;;;;;;;;;;;;;;8.18;53.53;100331.56;6037526;23;98854;-82
2021/01/01 08:19:43;;;;;;;;;;;;;;;8.25;53.73;100332.22;6040484;23;98867;-81
2021/01/01 08:22:10;;;;;;;;;;;;;;;8.35;53.22;100334.53;6036822;23;96713;-81
2021/01/01 08:24:38;;;;;;;;;;;;;;;8.26;53.33;100337.44;6039067;23;96817;-82
2021/01/01 08:27:04;;;;;;;;;;;;;;;8.26;53.51;100329.53;6034311;23;98901;-80
2021/01/01 08:29:31;;;;;;;;;;;;;;;8.32;53.69;100337.28;6034377;23;99191;-80
2021/01/01 08:31:58;;;;;;;;;;;;;;;8.51;53.05;100329.63;6036001;23;96778;-80
2021/01/01 08:34:23;;;;;;;;;;;;;;;8.62;52.90;100334.50;6035061;23;96776;-79
2021/01/01 08:36:51;;;;;;;;;;;;;;;8.46;53.24;100341.22;6035390;23;101561;-80
2021/01/01 08:39:17;;;;;;;;;;;;;;;8.32;53.62;100347.81;6034725;23;98947;-79
2021/01/01 08:41:43;;;;;;;;;;;;;;;8.44;53.99;100343.03;6035683;23;96617;-79
2021/01/01 08:44:09;;;;;;;;;;;;;;;8.46;53.66;100349.13;6036037;23;96923;-80
2021/01/01 08:46:35;;;;;;;;;;;;;;;8.39;53.50;100346.69;6035971;23;98902;-80
2021/01/01 08:49:12;;;;;;;;;;;;;;;8.50;53.12;100345.47;6034579;23;98838;-81
2021/01/01 08:51:38;;;;;;;;;;;;;;;8.69;52.80;100351.84;6036822;23;96753;-80
2021/01/01 08:54:05;;;;;;;;;;;;;;;8.89;52.55;100348.50;6038684;23;96896;-80
2021/01/01 08:56:30;;;;;;;;;;;;;;;8.72;53.02;100357.88;6053068;23;98863;-80
2021/01/01 08:59:07;;;;;;;;;;;;;;;8.85;52.68;100366.22;6057930;23;97794;-82
2021/01/01 09:01:33;;;;;;;;;;;;;;;8.72;52.85;100367.53;6059945;23;96452;-79
2021/01/01 09:04:02;;;;;;;;;;;;;;;8.92;52.37;100358.97;6059218;23;96419;-80
2021/01/01 09:06:29;;;;;;;;;;;;;;;8.74;53.20;100358.66;6058664;23;97933;-80
2021/01/01 09:09:09;;;;;;;;;;;;;;;9.09;52.32;100361.84;6049098;23;97914;-80
2021/01/01 09:11:35;;;;;;;;;;;;;;;9.02;52.17;100363.84;6052344;23;96476;-80
2021/01/01 09:14:02;;;;;;;;;;;;;;;8.75;52.48;100372.69;6053638;23;96930;-80
2021/01/01 09:16:28;;;;;;;;;;;;;;;8.84;52.71;100374.16;6050357;23;97012;-80
2021/01/01 09:18:54;;;;;;;;;;;;;;;8.85;52.57;100373.25;6048153;23;97758;-82
2021/01/01 09:21:21;;;;;;;;;;;;;;;8.91;52.50;100373.91;6021935;23;96675;-80
2021/01/01 09:23:52;;;;;;;;;;;;;;;8.87;52.42;100374.03;6044527;23;96841;-80
2021/01/01 09:26:22;;;;;;;;;;;;;;;8.93;52.74;100384.38;6043824;23;96855;-79
2021/01/01 09:28:48;;;;;;;;;;;;;;;8.96;52.14;100379.88;6040358;23;97733;-81
2021/01/01 09:31:15;;;;;;;;;;;;;;;8.75;53.40;100383.22;6039025;23;96627;-81
2021/01/01 09:33:41;;;;;;;;;;;;;;;8.86;52.85;100383.72;6044902;23;96865;-81
2021/01/01 09:36:07;;;;;;;;;;;;;;;8.62;53.36;100382.78;6044650;23;98827;-80
2021/01/01 09:38:33;;;;;;;;;;;;;;;8.73;53.18;100387.69;6043060;23;100911;-84
2021/01/01 09:40:59;;;;;;;;;;;;;;;8.75;53.08;100385.88;6046843;23;96707;-83
2021/01/01 09:43:26;;;;;;;;;;;;;;;8.88;53.08;100387.16;6045655;23;96795;-82
2021/01/01 09:45:52;;;;;;;;;;;;;;;8.92;52.92;100388.81;6041090;23;99627;-80
2021/01/01 09:48:18;;;;;;;;;;;;;;;8.82;53.34;100391.78;6039484;23;98841;-81
2021/01/01 09:50:44;;;;;;;;;;;;;;;8.76;53.33;100388.47;6033897;23;96732;-81
2021/01/01 09:53:10;;;;;;;;;;;;;;;9.01;52.80;100393.75;6035386;23;96795;-81
2021/01/01 09:55:36;;;;;;;;;;;;;;;8.90;53.45;100395.03;6034597;23;99438;-82
2021/01/01 09:58:02;;;;;;;;;;;;;;;8.91;53.01;100389.72;6035482;23;99179;-81
2021/01/01 10:00:28;;;;;;;;;;;;;;;8.99;52.85;100392.94;6034994;23;96618;-80
2021/01/01 10:02:54;;;;;;;;;;;;;;;9.04;52.92;100392.78;6034343;23;96817;-82
2021/01/01 10:05:20;;;;;;;;;;;;;;;9.14;52.87;100388.91;6033521;23;99273;-80
2021/01/01 10:07:46;;;;;;;;;;;;;;;8.77;53.67;100391.94;6033262;23;98277;-81
2021/01/01 10:10:12;;;;;;;;;;;;;;;8.78;53.71;100391.03;6036290;23;96697;-80
2021/01/01 10:12:38;;;;;;;;;;;;;;;9.03;52.98;100397.19;6034208;23;96891;-80
2021/01/01 10:15:04;;;;;;;;;;;;;;;9.01;53.12;100403.44;6035339;23;99352;-80
2021/01/01 10:17:31;;;;;;;;;;;;;;;9.15;53.15;100391.50;6011282;23;97534;-80
2021/01/01 10:19:57;;;;;;;;;;;;;;;8.98;53.08;100399.13;6043931;23;96684;-81
2021/01/01 10:22:23;;;;;;;;;;;;;;;9.11;52.35;100402.22;6039981;23;96733;-80
2021/01/01 10:24:49;;;;;;;;;;;;;;;8.96;52.80;100400.97;6034678;23;101196;-80
2021/01/01 10:27:15;;;;;;;;;;;;;;;8.98;53.17;100396.50;6034217;23;100371;-80
2021/01/01 10:29:41;;;;;;;;;;;;;;;9.02;53.36;100402.50;6038151;23;96839;-80
2021/01/01 10:32:07;;;;;;;;;;;;;;;9.07;53.13;100397.94;6033709;23;96815;-80
2021/01/01 10:34:35;;;;;;;;;;;;;;;9.05;52.81;100395.38;6035771;23;98922;-80
2021/01/01 10:37:01;;;;;;;;;;;;;;;9.16;52.98;100398.50;6033587;23;101034;-80
2021/01/01 10:39:26;;;;;;;;;;;;;;;9.05;52.86;100400.66;6035961;23;96727;-81
2021/01/01 10:41:52;;;;;;;;;;;;;;;9.10;52.45;100392.56;6036020;23;97170;-80
2021/01/01 10:44:18;;;;;;;;;;;;;;;9.06;53.29;100399.72;6036158;23;97842;-81
2021/01/01 10:46:47;;;;;;;;;;;;;;;9.22;52.84;100396.53;6034979;23;97159;-80
2021/01/01 10:49:13;;;;;;;;;;;;;;;9.25;52.30;100396.44;6034889;23;96651;-78
2021/01/01 10:51:40;;;;;;;;;;;;;;;9.10;52.73;100397.84;6039550;23;96827;-81
2021/01/01 10:54:06;;;;;;;;;;;;;;;9.24;52.08;100394.72;6045679;23;101306;-80
2021/01/01 10:56:31;;;;;;;;;;;;;;;9.28;51.85;100396.31;6044426;23;97698;-81
2021/01/01 10:58:57;;;;;;;;;;;;;;;9.45;51.38;100405.34;6045825;23;96875;-80
2021/01/01 11:01:23;;;;;;;;;;;;;;;9.40;51.53;100396.75;6043153;23;96886;-80
2021/01/01 11:03:50;;;;;;;;;;;;;;;9.05;52.91;100399.78;6040220;23;101672;-79
2021/01/01 11:06:16;;;;;;;;;;;;;;;9.19;52.59;100402.78;6039381;23;98918;-84
2021/01/01 11:08:43;;;;;;;;;;;;;;;9.36;52.42;100399.56;6039363;23;97323;-81
2021/01/01 11:11:10;;;;;;;;;;;;;;;9.44;51.76;100395.75;6034198;23;97099;-79
2021/01/01 11:13:39;;;;;;;;;;;;;;;9.46;52.15;100387.75;6033220;23;101608;-81
2021/01/01 12:20:09;;;;;;;;;;;;;;;9.32;53.73;100392.69;6035386;23;97061;-82
2021/01/01 12:22:37;;;;;;;;;;;;;;;9.31;53.23;100391.81;6040805;23;99134;-82
2021/01/01 12:25:03;;;;;;;;;;;;;;;9.06;53.98;100390.94;6048684;23;96739;-81
2021/01/01 12:27:35;;;;;;;;;;;;;;;9.13;53.83;100387.19;6045713;23;96971;-85
2021/01/01 12:30:03;;;;;;;;;;;;;;;9.23;53.19;100393.00;6046363;23;99341;-81
2021/01/01 12:32:29;;;;;;;;;;;;;;;9.02;53.96;100398.09;6043537;23;96905;-82
2021/01/01 12:34:54;;;;;;;;;;;;;;;9.26;53.13;100395.50;6044483;23;96672;-80
2021/01/01 12:37:20;;;;;;;;;;;;;;;9.35;53.47;100393.41;6042480;23;96653;-83
2021/01/01 12:39:46;;;;;;;;;;;;;;;9.16;53.25;100384.44;6038889;23;99235;-81
2021/01/01 12:42:12;;;;;;;;;;;;;;;9.39;53.01;100400.28;6034983;23;97780;-82
2021/01/01 12:44:39;;;;;;;;;;;;;;;9.51;52.60;100389.31;6033430;23;97389;-79
2021/01/01 12:47:05;;;;;;;;;;;;;;;9.52;52.55;100400.72;6034097;23;96760;-77
2021/01/01 12:49:31;;;;;;;;;;;;;;;9.38;52.76;100398.59;6033707;23;99027;-80
2021/01/01 12:51:57;;;;;;;;;;;;;;;9.34;53.04;100398.75;6032289;23;98040;-79
2021/01/01 12:54:23;;;;;;;;;;;;;;;9.41;52.84;100406.38;6033057;23;97114;-79
2021/01/01 12:56:50;;;;;;;;;;;;;;;9.45;52.32;100407.16;6033707;23;96820;-79
2021/01/01 12:59:16;;;;;;;;;;;;;;;9.28;52.69;100412.16;6033493;23;99176;-78
2021/01/01 13:01:41;;;;;;;;;;;;;;;9.28;53.12;100406.88;6036262;23;98763;-78
2021/01/01 13:04:08;;;;;;;;;;;;;;;9.35;52.52;100409.25;6035210;23;96932;-79
2021/01/01 13:06:34;;;;;;;;;;;;;;;9.52;52.07;100411.25;6033139;23;96799;-78
2021/01/01 13:09:01;;;;;;;;;;;;;;;9.57;52.01;100415.47;6032668;23;98804;-80
2021/01/01 13:11:27;;;;;;;;;;;;;;;9.53;51.93;100419.13;6032497;23;98942;-79
2021/01/01 13:13:53;;;;;;;;;;;;;;;9.38;52.07;100411.78;6032288;23;96909;-78
2021/01/01 13:16:22;;;;;;;;;;;;;;;9.40;52.40;100416.97;6032883;23;97006;-79
2021/01/01 13:18:48;;;;;;;;;;;;;;;9.59;51.69;100418.03;6031565;23;98968;-78
2021/01/01 13:21:23;;;;;;;;;;;;;;;9.55;52.04;100421.72;6032621;23;98892;-79
2021/01/01 13:23:49;;;;;;;;;;;;;;;9.37;52.33;100417.97;6031980;23;96893;-79
2021/01/01 13:26:18;;;;;;;;;;;;;;;9.24;53.02;100423.72;6033390;23;96767;-80
2021/01/01 13:28:43;;;;;;;;;;;;;;;9.10;53.21;100422.44;6032095;23;98309;-79
2021/01/01 13:31:09;;;;;;;;;;;;;;;9.23;52.93;100430.78;6033379;23;98836;-79
2021/01/01 13:33:36;;;;;;;;;;;;;;;9.13;52.41;100429.34;6031486;23;108613;-80
2021/01/01 13:36:02;;;;;;;;;;;;;;;8.62;53.36;100435.47;6034055;23;96832;-79
2021/01/01 13:38:29;;;;;;;;;;;;;;;8.72;53.96;100431.63;6035905;23;99124;-79
2021/01/01 13:40:55;;;;;;;;;;;;;;;8.97;53.89;100433.44;6040918;23;99255;-77
2021/01/01 13:43:23;;;;;;;;;;;;;;;8.91;53.58;100437.16;6039193;23;97038;-78
2021/01/01 13:45:48;;;;;;;;;;;;;;;9.00;53.45;100438.59;6032107;23;97276;-78
2021/01/01 13:48:14;;;;;;;;;;;;;;;9.18;52.60;100438.00;6030825;23;99284;-78